Time;durP1;ratioP1;P1;durP2;ratioP2;P2;SDS_P1;SDS_P2;PMS_P1;PMS_P2;Temp;Humidity;BMP_temperature;BMP_pressure;BME280_temperature;BME280_humidity;BME280_pressure;Samples;Min_cycle;Max_cycle;Signal;HPM_P1;HPM_P2
2022/07/24 00:00:24;;;;;;;0.20;0.20;;;13.40;99.90;;;;;;5056780;28;20118;-74
2022/07/24 00:02:49;;;;;;;0.10;0.10;;;13.30;99.90;;;;;;5067986;28;20033;-74
2022/07/24 00:05:15;;;;;;;0.25;0.20;;;13.30;99.90;;;;;;5077128;28;20028;-74
2022/07/24 00:07:40;;;;;;;0.47;0.30;;;13.30;99.90;;;;;;5076351;28;20021;-74
2022/07/24 00:10:07;;;;;;;0.43;0.28;;;13.30;99.90;;;;;;5076225;28;20093;-76
2022/07/24 00:12:33;;;;;;;0.00;0.00;;;13.30;99.90;;;;;;5076080;28;20025;-76
2022/07/24 00:14:59;;;;;;;1.10;0.65;;;13.40;99.90;;;;;;5074798;28;20120;-75
2022/07/24 00:17:24;;;;;;;0.98;0.30;;;13.40;99.90;;;;;;5075613;28;20021;-76
2022/07/24 00:19:50;;;;;;;0.03;0.03;;;13.50;99.90;;;;;;5074451;28;20024;-73
2022/07/24 00:22:15;;;;;;;0.55;0.47;;;13.50;99.90;;;;;;5073665;28;20044;-74
2022/07/24 00:24:44;;;;;;;0.80;0.30;;;13.60;99.90;;;;;;5062324;28;20045;-74
2022/07/24 00:27:10;;;;;;;3.75;1.10;;;13.60;99.90;;;;;;5054326;28;20098;-74
2022/07/24 00:29:35;;;;;;;0.73;0.73;;;13.60;99.90;;;;;;5053782;28;20048;-74
2022/07/24 00:32:01;;;;;;;3.83;0.57;;;13.70;99.90;;;;;;5053650;28;20041;-73
2022/07/24 00:34:26;;;;;;;0.38;0.38;;;13.80;99.90;;;;;;5053216;28;20136;-74
2022/07/24 00:36:52;;;;;;;0.15;0.15;;;13.90;99.90;;;;;;5053486;28;20052;-73
2022/07/24 00:39:18;;;;;;;4.68;0.43;;;13.90;99.90;;;;;;5052934;28;20045;-74
2022/07/24 00:41:43;;;;;;;0.20;0.20;;;14.00;99.90;;;;;;5053111;28;20033;-74
2022/07/24 00:44:13;;;;;;;0.40;0.22;;;14.10;99.90;;;;;;5052701;28;20469;-73
2022/07/24 00:46:40;;;;;;;0.00;0.00;;;14.10;99.90;;;;;;5053207;28;20041;-74
2022/07/24 00:49:08;;;;;;;0.47;0.47;;;14.10;99.90;;;;;;5053036;28;20053;-74
2022/07/24 00:51:35;;;;;;;2.47;1.17;;;14.10;99.90;;;;;;5053164;28;20056;-74
2022/07/24 00:54:05;;;;;;;0.45;0.40;;;14.20;99.90;;;;;;5052819;28;20152;-74
2022/07/24 00:56:31;;;;;;;0.10;0.10;;;14.10;99.90;;;;;;5052361;28;20033;-74
2022/07/24 00:58:57;;;;;;;0.08;0.08;;;14.00;99.90;;;;;;5053303;28;20045;-73
2022/07/24 01:01:23;;;;;;;0.20;0.20;;;14.00;99.90;;;;;;5053216;28;20120;-74
2022/07/24 01:03:51;;;;;;;0.08;0.08;;;14.10;99.90;;;;;;5053071;28;20624;-74
2022/07/24 01:06:17;;;;;;;1.05;0.65;;;14.10;99.90;;;;;;5051707;28;20491;-74
2022/07/24 01:08:43;;;;;;;0.55;0.20;;;14.10;99.90;;;;;;5052813;28;20037;-76
2022/07/24 01:11:09;;;;;;;0.70;0.40;;;14.00;99.90;;;;;;5052866;28;20044;-74
2022/07/24 01:13:35;;;;;;;0.00;0.00;;;13.90;99.90;;;;;;5052896;28;20135;-74
2022/07/24 01:16:01;;;;;;;0.32;0.32;;;13.90;99.90;;;;;;5052338;28;20037;-75
2022/07/24 01:18:27;;;;;;;0.25;0.20;;;13.90;99.90;;;;;;5056379;28;20097;-75
2022/07/24 01:20:53;;;;;;;0.20;0.20;;;13.90;99.90;;;;;;5056955;28;20441;-74
2022/07/24 01:23:19;;;;;;;0.20;0.10;;;13.90;99.90;;;;;;5056726;28;20037;-74
2022/07/24 01:25:44;;;;;;;0.30;0.13;;;13.80;99.90;;;;;;5056959;28;20052;-74
2022/07/24 01:28:10;;;;;;;0.03;0.03;;;13.80;99.90;;;;;;5056751;28;20498;-74
2022/07/24 01:30:35;;;;;;;0.20;0.20;;;13.80;99.90;;;;;;5056433;28;20076;-74
2022/07/24 01:33:01;;;;;;;0.00;0.00;;;13.80;99.90;;;;;;5056410;28;20471;-74
2022/07/24 01:35:27;;;;;;;0.40;0.40;;;13.80;99.90;;;;;;5056626;28;20052;-73
2022/07/24 01:37:53;;;;;;;0.90;0.55;;;13.90;99.90;;;;;;5056666;28;20047;-73
2022/07/24 01:40:20;;;;;;;0.20;0.20;;;14.10;99.90;;;;;;5056407;28;20087;-74
2022/07/24 01:42:46;;;;;;;0.20;0.20;;;13.90;99.90;;;;;;5056065;28;20495;-74
2022/07/24 01:45:12;;;;;;;0.45;0.40;;;14.90;99.90;;;;;;5056639;28;20048;-75
2022/07/24 01:47:38;;;;;;;0.10;0.10;;;13.90;99.90;;;;;;5056527;28;20091;-74
2022/07/24 01:50:04;;;;;;;0.65;0.43;;;13.90;99.90;;;;;;5056100;28;20037;-75
2022/07/24 01:52:30;;;;;;;1.77;0.75;;;13.90;99.90;;;;;;5056300;28;20398;-76
2022/07/24 01:54:55;;;;;;;1.10;0.80;;;13.80;99.90;;;;;;5037874;28;20043;-73
2022/07/24 01:57:21;;;;;;;0.25;0.25;;;13.80;99.90;;;;;;5045718;22;20515;-74
2022/07/24 01:59:47;;;;;;;1.45;0.60;;;13.80;99.90;;;;;;5000006;28;20038;-73
2022/07/24 02:02:12;;;;;;;0.70;0.35;;;13.90;99.90;;;;;;5011387;28;20069;-73
2022/07/24 02:04:38;;;;;;;0.00;0.00;;;13.80;99.90;;;;;;5014324;28;20045;-73
2022/07/24 02:07:04;;;;;;;0.00;0.00;;;14.00;99.90;;;;;;5000302;28;20516;-75
2022/07/24 02:09:30;;;;;;;0.20;0.08;;;14.00;99.90;;;;;;4998018;28;20054;-75
2022/07/24 02:11:55;;;;;;;0.17;0.17;;;14.10;99.90;;;;;;5015139;28;20553;-75
2022/07/24 02:14:21;;;;;;;0.47;0.32;;;14.20;99.90;;;;;;5007657;28;20052;-75
2022/07/24 02:16:47;;;;;;;0.28;0.22;;;14.20;99.90;;;;;;5014804;28;20400;-75
2022/07/24 02:19:13;;;;;;;0.57;0.25;;;14.30;99.90;;;;;;5015538;28;20073;-74
2022/07/24 02:21:38;;;;;;;0.10;0.10;;;14.20;99.90;;;;;;5015308;28;20117;-74
2022/07/24 02:24:04;;;;;;;0.90;0.35;;;14.20;99.90;;;;;;5015171;28;20088;-74
2022/07/24 02:26:30;;;;;;;0.17;0.17;;;14.30;99.90;;;;;;5015138;28;20046;-74
2022/07/24 02:28:56;;;;;;;0.43;0.25;;;14.20;99.90;;;;;;5014002;28;20126;-74
2022/07/24 02:31:21;;;;;;;0.28;0.28;;;14.20;99.90;;;;;;5005152;28;20045;-75
2022/07/24 02:33:47;;;;;;;0.43;0.30;;;14.20;99.90;;;;;;4995147;28;20046;-74
2022/07/24 02:36:13;;;;;;;0.38;0.20;;;14.20;99.90;;;;;;4993998;28;20389;-74
2022/07/24 02:38:39;;;;;;;0.13;0.10;;;14.20;99.90;;;;;;5011283;28;20056;-74
2022/07/24 02:41:05;;;;;;;0.13;0.13;;;14.20;99.90;;;;;;5014996;28;20408;-74
2022/07/24 02:43:30;;;;;;;0.00;0.00;;;14.20;99.90;;;;;;5014670;28;20121;-75
2022/07/24 02:45:56;;;;;;;0.52;0.52;;;14.20;99.90;;;;;;5014929;28;20041;-75
2022/07/24 02:48:21;;;;;;;0.00;0.00;;;14.20;99.90;;;;;;5014310;28;20045;-75
2022/07/24 02:50:47;;;;;;;0.20;0.20;;;14.10;99.90;;;;;;5014988;28;20057;-75
2022/07/24 02:53:13;;;;;;;0.25;0.25;;;14.20;99.90;;;;;;5013559;28;20425;-75
2022/07/24 02:55:39;;;;;;;0.00;0.00;;;14.10;99.90;;;;;;5014785;28;20042;-74
2022/07/24 02:58:04;;;;;;;1.45;1.08;;;14.10;99.90;;;;;;5014617;28;20062;-75
2022/07/24 03:00:30;;;;;;;0.05;0.05;;;14.10;99.90;;;;;;5014429;28;20518;-75
2022/07/24 03:02:55;;;;;;;0.57;0.45;;;14.10;99.90;;;;;;5013876;28;20045;-75
2022/07/24 03:05:21;;;;;;;0.10;0.10;;;14.10;99.90;;;;;;5004905;28;20050;-75
2022/07/24 03:07:47;;;;;;;0.10;0.10;;;14.10;99.90;;;;;;5002466;28;20052;-75
2022/07/24 03:10:14;;;;;;;0.00;0.00;;;14.10;99.90;;;;;;5014376;28;20113;-74
2022/07/24 03:12:40;;;;;;;0.75;0.57;;;14.00;99.90;;;;;;5014257;28;20120;-75
2022/07/24 03:15:07;;;;;;;0.25;0.22;;;14.10;99.90;;;;;;5013984;28;20121;-75
2022/07/24 03:17:32;;;;;;;2.45;0.90;;;14.00;99.90;;;;;;5013733;28;20507;-75
2022/07/24 03:19:58;;;;;;;0.00;0.00;;;14.00;99.90;;;;;;5014343;28;20129;-75
2022/07/24 03:22:23;;;;;;;0.10;0.10;;;14.00;99.90;;;;;;5014149;28;20423;-74
2022/07/24 03:24:49;;;;;;;0.00;0.00;;;14.00;99.90;;;;;;5013912;28;20066;-75
2022/07/24 03:27:15;;;;;;;0.68;0.45;;;14.10;99.90;;;;;;5013674;28;20042;-75
2022/07/24 03:29:40;;;;;;;2.90;0.77;;;14.00;99.90;;;;;;5013881;28;20046;-75
2022/07/24 03:32:06;;;;;;;0.47;0.47;;;14.10;99.90;;;;;;5013646;28;20447;-74
2022/07/24 03:34:31;;;;;;;0.13;0.13;;;14.50;99.90;;;;;;5013923;28;20038;-74
2022/07/24 03:36:57;;;;;;;1.30;0.65;;;14.10;99.90;;;;;;5013651;28;20049;-74
2022/07/24 03:39:23;;;;;;;0.00;0.00;;;14.30;99.90;;;;;;5013095;28;20042;-74
2022/07/24 03:41:48;;;;;;;0.00;0.00;;;14.30;99.90;;;;;;5013402;28;20042;-74
2022/07/24 03:44:14;;;;;;;0.25;0.25;;;14.30;99.90;;;;;;5013551;28;20081;-74
2022/07/24 03:46:39;;;;;;;0.00;0.00;;;14.30;99.90;;;;;;5013139;28;20058;-74
2022/07/24 03:49:05;;;;;;;0.32;0.32;;;14.40;99.90;;;;;;5013672;28;20057;-74
2022/07/24 03:51:31;;;;;;;0.10;0.10;;;14.40;99.90;;;;;;5013463;28;20388;-74
2022/07/24 03:53:57;;;;;;;0.22;0.22;;;14.40;99.90;;;;;;5013461;28;20516;-74
2022/07/24 03:56:22;;;;;;;1.20;0.30;;;14.40;99.90;;;;;;5013152;28;20141;-74
2022/07/24 03:58:48;;;;;;;0.77;0.52;;;14.40;99.90;;;;;;5012535;28;20053;-74
2022/07/24 04:01:13;;;;;;;1.20;0.85;;;14.40;99.90;;;;;;5013324;28;20096;-75
2022/07/24 04:03:39;;;;;;;0.30;0.30;;;14.50;99.90;;;;;;5013437;28;20408;-74
2022/07/24 04:06:05;;;;;;;4.60;0.65;;;14.50;99.90;;;;;;5013395;28;20400;-74
2022/07/24 04:08:32;;;;;;;0.25;0.25;;;14.50;99.90;;;;;;5012775;28;20053;-74
2022/07/24 04:10:58;;;;;;;0.55;0.35;;;14.50;99.90;;;;;;5013082;28;20046;-74
2022/07/24 04:13:25;;;;;;;0.25;0.22;;;14.50;99.90;;;;;;5013246;28;20221;-74
2022/07/24 04:15:50;;;;;;;0.20;0.20;;;14.50;99.90;;;;;;5013029;28;20045;-74
2022/07/24 04:18:16;;;;;;;0.63;0.50;;;14.60;99.90;;;;;;5012913;28;20053;-74
2022/07/24 04:20:41;;;;;;;0.30;0.10;;;14.60;99.90;;;;;;5013252;28;20038;-74
2022/07/24 04:23:07;;;;;;;0.45;0.38;;;14.60;99.90;;;;;;5013015;28;20080;-74
2022/07/24 04:25:34;;;;;;;0.30;0.15;;;14.70;99.90;;;;;;5012931;28;20049;-74
2022/07/24 04:28:00;;;;;;;0.00;0.00;;;14.70;99.90;;;;;;5012543;28;20565;-74
2022/07/24 04:30:26;;;;;;;0.70;0.35;;;14.70;99.90;;;;;;5012893;28;20080;-75
2022/07/24 04:32:52;;;;;;;0.13;0.13;;;14.70;99.90;;;;;;5012926;28;20433;-74
2022/07/24 04:35:17;;;;;;;0.10;0.10;;;14.70;99.90;;;;;;5013087;28;20115;-75
2022/07/24 04:37:43;;;;;;;1.23;1.13;;;14.70;99.90;;;;;;5012574;28;20073;-74
2022/07/24 04:40:09;;;;;;;0.35;0.32;;;14.70;99.90;;;;;;5012966;28;20037;-74
2022/07/24 04:42:35;;;;;;;2.97;0.50;;;14.80;99.90;;;;;;5012771;28;20042;-74
2022/07/24 04:45:01;;;;;;;2.85;0.52;;;14.80;99.90;;;;;;5012758;28;20073;-74
2022/07/24 04:47:26;;;;;;;0.65;0.47;;;14.90;99.90;;;;;;5012390;28;20045;-74
2022/07/24 04:49:52;;;;;;;0.75;0.47;;;15.00;99.90;;;;;;5012892;28;20053;-75
2022/07/24 04:52:17;;;;;;;1.50;0.95;;;15.00;99.90;;;;;;5015206;28;20096;-74
2022/07/24 04:54:43;;;;;;;0.35;0.30;;;15.20;99.90;;;;;;5016486;28;20038;-75
2022/07/24 04:57:08;;;;;;;0.00;0.00;;;15.20;99.90;;;;;;5016252;28;20399;-75
2022/07/24 04:59:34;;;;;;;0.43;0.25;;;15.20;99.90;;;;;;5016699;28;20103;-74
2022/07/24 05:01:59;;;;;;;0.75;0.50;;;15.30;99.90;;;;;;5016868;28;20510;-74
2022/07/24 05:04:25;;;;;;;2.38;1.02;;;15.40;99.90;;;;;;5016619;28;20057;-74
2022/07/24 05:06:51;;;;;;;0.52;0.38;;;15.70;99.90;;;;;;5016365;28;20045;-74
2022/07/24 05:09:16;;;;;;;0.52;0.30;;;16.10;99.90;;;;;;5016449;28;20041;-74
2022/07/24 05:11:42;;;;;;;0.55;0.45;;;16.50;99.90;;;;;;5016668;28;20053;-74
2022/07/24 05:14:07;;;;;;;0.43;0.35;;;16.80;99.90;;;;;;5016480;28;20074;-74
2022/07/24 05:16:33;;;;;;;0.20;0.20;;;16.90;99.90;;;;;;5016218;28;20037;-74
2022/07/24 05:18:59;;;;;;;1.65;0.28;;;16.90;99.90;;;;;;5016262;28;20046;-75
2022/07/24 05:21:24;;;;;;;0.03;0.03;;;17.20;99.90;;;;;;5016259;28;20124;-75
2022/07/24 05:23:50;;;;;;;0.30;0.15;;;17.40;99.90;;;;;;5016158;28;20100;-74
2022/07/24 05:26:15;;;;;;;0.00;0.00;;;18.00;99.90;;;;;;5016001;28;20046;-75
2022/07/24 05:28:41;;;;;;;0.80;0.45;;;18.60;99.90;;;;;;5015885;28;20505;-75
2022/07/24 05:31:08;;;;;;;0.22;0.20;;;19.20;99.90;;;;;;5016140;28;20042;-75
2022/07/24 05:33:33;;;;;;;0.40;0.40;;;19.80;99.90;;;;;;5015944;28;20049;-75
2022/07/24 05:35:59;;;;;;;1.65;0.45;;;20.20;99.90;;;;;;5016010;28;20428;-75
2022/07/24 05:38:25;;;;;;;0.55;0.47;;;20.50;99.90;;;;;;5015673;28;20046;-75
2022/07/24 05:40:50;;;;;;;0.10;0.10;;;20.90;99.90;;;;;;5016094;28;20085;-75
2022/07/24 05:43:16;;;;;;;5.22;0.32;;;21.60;99.90;;;;;;5015721;28;20045;-75
2022/07/24 05:45:42;;;;;;;0.32;0.25;;;21.90;99.90;;;;;;5015427;28;20049;-75
2022/07/24 05:48:08;;;;;;;0.47;0.47;;;22.30;99.90;;;;;;5006470;28;20042;-75
2022/07/24 05:50:33;;;;;;;0.15;0.15;;;22.10;99.90;;;;;;5006444;28;20093;-75
2022/07/24 05:52:59;;;;;;;1.55;0.98;;;21.80;99.90;;;;;;5004477;28;20058;-75
2022/07/24 05:55:24;;;;;;;0.20;0.20;;;21.60;99.90;;;;;;5009597;28;20045;-75
2022/07/24 05:57:50;;;;;;;1.00;0.85;;;21.40;99.90;;;;;;5014703;28;20057;-75
2022/07/24 06:00:18;;;;;;;0.70;0.60;;;21.10;99.90;;;;;;5015562;28;20505;-75
2022/07/24 06:02:46;;;;;;;2.65;1.00;;;20.60;99.90;;;;;;5014734;28;20069;-75
2022/07/24 06:05:12;;;;;;;0.10;0.08;;;20.00;99.90;;;;;;5015567;28;20044;-75
2022/07/24 06:07:37;;;;;;;4.57;0.28;;;19.60;99.90;;;;;;5014902;28;20121;-75
2022/07/24 06:10:04;;;;;;;1.33;0.50;;;19.50;99.90;;;;;;5015257;28;20041;-75
2022/07/24 06:12:29;;;;;;;2.72;1.13;;;19.90;99.90;;;;;;5015157;28;20038;-75
2022/07/24 06:14:55;;;;;;;3.55;1.33;;;20.70;99.90;;;;;;5015301;28;20088;-75
2022/07/24 06:17:20;;;;;;;0.38;0.35;;;21.50;99.90;;;;;;5015083;28;20496;-75
2022/07/24 06:19:46;;;;;;;0.93;0.47;;;22.30;99.90;;;;;;5015342;28;20060;-75
2022/07/24 06:22:11;;;;;;;0.47;0.40;;;22.70;99.90;;;;;;5015047;28;20081;-75
2022/07/24 06:24:37;;;;;;;0.17;0.17;;;23.30;99.90;;;;;;5015053;28;20048;-75
2022/07/24 06:27:04;;;;;;;1.38;0.82;;;23.80;95.40;;;;;;5014629;28;20069;-76
2022/07/24 06:29:30;;;;;;;0.52;0.35;;;24.20;93.50;;;;;;5015139;28;20044;-75
2022/07/24 06:31:56;;;;;;;2.45;0.70;;;24.40;90.80;;;;;;5015159;28;20054;-75
2022/07/24 06:34:24;;;;;;;0.28;0.28;;;24.40;85.70;;;;;;5014912;28;20049;-75
2022/07/24 06:36:50;;;;;;;0.40;0.40;;;24.20;88.00;;;;;;5014743;28;20087;-76
2022/07/24 06:39:17;;;;;;;0.57;0.50;;;23.90;94.60;;;;;;5014630;28;20053;-75
2022/07/24 06:41:42;;;;;;;2.42;0.75;;;24.00;88.00;;;;;;5014685;28;20037;-75
2022/07/24 06:44:08;;;;;;;1.05;0.90;;;24.00;86.90;;;;;;5014945;28;20097;-75
2022/07/24 06:46:34;;;;;;;0.30;0.30;;;23.90;88.70;;;;;;5014251;28;20400;-76
2022/07/24 06:48:59;;;;;;;0.25;0.25;;;23.90;89.60;;;;;;5014500;28;20117;-75
2022/07/24 06:51:25;;;;;;;0.35;0.22;;;23.50;91.30;;;;;;5014697;28;20116;-75
2022/07/24 06:53:50;;;;;;;0.05;0.05;;;23.40;94.40;;;;;;5014317;28;20046;-73
2022/07/24 06:56:16;;;;;;;1.33;0.77;;;23.70;91.20;;;;;;5013703;28;20751;-73
2022/07/24 06:58:41;;;;;;;0.40;0.40;;;24.10;93.20;;;;;;5011457;28;20121;-73
2022/07/24 07:01:07;;;;;;;0.82;0.57;;;24.50;88.70;;;;;;5005521;28;20097;-73
2022/07/24 07:03:33;;;;;;;2.08;0.82;;;25.00;87.30;;;;;;5003616;28;20134;-74
2022/07/24 07:05:58;;;;;;;2.17;0.88;;;25.30;80.00;;;;;;5003515;28;20060;-74
2022/07/24 07:08:24;;;;;;;1.38;0.63;;;25.50;64.60;;;;;;5003864;28;20503;-74
2022/07/24 07:10:50;;;;;;;1.35;0.80;;;25.60;74.80;;;;;;5004022;28;20049;-74
2022/07/24 07:13:15;;;;;;;2.28;1.25;;;26.00;63.60;;;;;;5004589;28;20065;-74
2022/07/24 07:15:41;;;;;;;0.52;0.52;;;26.40;64.60;;;;;;5001511;28;20041;-74
2022/07/24 07:18:06;;;;;;;0.17;0.17;;;26.60;60.60;;;;;;5005315;28;20293;-74
2022/07/24 07:20:32;;;;;;;0.40;0.40;;;27.00;53.90;;;;;;5013932;28;20435;-74
2022/07/24 07:22:58;;;;;;;1.20;0.50;;;27.30;53.50;;;;;;5013506;28;20060;-74
2022/07/24 07:25:24;;;;;;;3.05;0.55;;;27.80;48.50;;;;;;5007484;28;20049;-74
2022/07/24 07:27:49;;;;;;;14.23;2.42;;;28.00;37.50;;;;;;5004590;28;20041;-74
2022/07/24 07:30:15;;;;;;;1.60;0.80;;;27.60;36.80;;;;;;5003135;28;20037;-74
2022/07/24 07:32:41;;;;;;;0.50;0.50;;;27.60;31.90;;;;;;5004382;28;20049;-74
2022/07/24 07:35:07;;;;;;;1.90;1.05;;;27.90;38.60;;;;;;5000259;28;20042;-75
2022/07/24 07:37:33;;;;;;;1.10;0.88;;;28.30;31.30;;;;;;5008187;28;20130;-75
2022/07/24 07:39:58;;;;;;;0.55;0.55;;;28.40;25.90;;;;;;5013545;28;20132;-74
2022/07/24 07:42:24;;;;;;;0.98;0.90;;;28.70;20.00;;;;;;5013794;28;20121;-75
2022/07/24 07:44:50;;;;;;;3.58;1.38;;;29.10;17.40;;;;;;5013647;28;20061;-74
2022/07/24 07:47:16;;;;;;;0.60;0.50;;;29.40;8.50;;;;;;5013363;28;20037;-75
2022/07/24 07:49:42;;;;;;;5.13;1.27;;;29.80;10.70;;;;;;5013417;28;20081;-74
2022/07/24 07:52:07;;;;;;;2.00;0.93;;;29.30;8.80;;;;;;5013201;28;20100;-74
2022/07/24 07:54:33;;;;;;;0.73;0.52;;;28.40;14.20;;;;;;5013075;28;20037;-74
2022/07/24 07:56:58;;;;;;;2.72;1.15;;;27.90;22.70;;;;;;5013248;28;20046;-74
2022/07/24 07:59:24;;;;;;;0.40;0.40;;;27.50;20.80;;;;;;5013481;28;20045;-74
2022/07/24 08:01:49;;;;;;;0.77;0.50;;;26.90;26.60;;;;;;5013294;28;20045;-74
2022/07/24 08:04:15;;;;;;;1.35;0.98;;;26.60;29.40;;;;;;5013146;28;20092;-74
2022/07/24 08:06:41;;;;;;;1.35;1.00;;;26.10;35.40;;;;;;5012958;28;20508;-74
2022/07/24 08:09:06;;;;;;;0.65;0.63;;;26.20;37.00;;;;;;5012682;28;20048;-74
2022/07/24 08:11:32;;;;;;;1.70;0.85;;;27.20;35.50;;;;;;5008294;28;20077;-74
2022/07/24 08:13:58;;;;;;;2.58;0.85;;;28.10;15.50;;;;;;5010174;28;20046;-75
2022/07/24 08:16:24;;;;;;;1.38;0.93;;;28.90;9.70;;;;;;5008406;28;20440;-74
2022/07/24 08:18:50;;;;;;;1.05;0.45;;;29.20;2.90;;;;;;5009929;28;20049;-75
2022/07/24 08:21:18;;;;;;;0.55;0.28;;;29.40;1.00;;;;;;4998783;28;20496;-75
2022/07/24 08:23:44;;;;;;;0.28;0.28;;;29.50;1.00;;;;;;4998556;28;20050;-75
2022/07/24 08:26:10;;;;;;;0.17;0.17;;;29.60;1.00;;;;;;4999055;28;20046;-74
2022/07/24 08:28:35;;;;;;;0.30;0.20;;;29.30;2.20;;;;;;5000486;28;20042;-76
2022/07/24 08:31:01;;;;;;;3.63;0.68;;;28.80;3.20;;;;;;4998621;28;20147;-75
2022/07/24 08:33:26;;;;;;;4.97;1.00;;;29.00;6.10;;;;;;4998557;28;20078;-75
2022/07/24 08:35:52;;;;;;;0.52;0.20;;;29.20;5.20;;;;;;4999335;28;20546;-75
2022/07/24 08:38:18;;;;;;;1.48;0.57;;;29.20;1.00;;;;;;5002549;28;20042;-75
2022/07/24 08:40:45;;;;;;;0.50;0.30;;;29.20;1.00;;;;;;4999695;28;20056;-75
2022/07/24 08:43:11;;;;;;;0.30;0.17;;;29.00;1.60;;;;;;4998482;28;21380;-76
2022/07/24 08:45:39;;;;;;;0.45;0.30;;;29.30;3.80;;;;;;5000200;28;20045;-76
2022/07/24 08:48:09;;;;;;;0.88;0.85;;;29.10;1.30;;;;;;5001304;28;20515;-75
2022/07/24 08:50:37;;;;;;;0.90;0.73;;;28.80;1.30;;;;;;5009203;28;20129;-75
2022/07/24 08:53:04;;;;;;;0.55;0.38;;;28.60;1.50;;;;;;5009286;28;20050;-75
2022/07/24 08:55:30;;;;;;;0.17;0.10;;;28.70;2.30;;;;;;5009490;28;20149;-75
2022/07/24 08:57:57;;;;;;;0.30;0.30;;;28.70;2.60;;;;;;5009066;28;20137;-75
2022/07/24 09:00:24;;;;;;;0.85;0.47;;;28.80;2.70;;;;;;5009599;28;20092;-76
2022/07/24 09:02:49;;;;;;;0.60;0.40;;;28.80;1.80;;;;;;5007453;28;20041;-75
2022/07/24 09:05:15;;;;;;;0.63;0.35;;;28.60;4.30;;;;;;5008962;28;20393;-75
2022/07/24 09:07:40;;;;;;;0.55;0.50;;;28.50;4.20;;;;;;5008984;28;20042;-75
2022/07/24 09:10:09;;;;;;;0.75;0.55;;;28.90;4.80;;;;;;5009509;28;20153;-75
2022/07/24 09:12:40;;;;;;;0.40;0.40;;;29.10;3.40;;;;;;5009391;28;20085;-75
2022/07/24 09:15:15;;;;;;;0.10;0.10;;;29.60;2.00;;;;;;5009533;28;20042;-75
2022/07/24 09:17:55;;;;;;;0.10;0.10;;;30.40;1.00;;;;;;5009490;28;20042;-75
2022/07/24 09:20:23;;;;;;;0.25;0.25;;;30.10;1.00;;;;;;5009260;28;20046;-75
2022/07/24 09:22:49;;;;;;;0.10;0.10;;;30.50;1.00;;;;;;5010493;28;20396;-72
2022/07/24 09:25:23;;;;;;;0.10;0.10;;;30.50;1.00;;;;;;5011295;28;20038;-74
2022/07/24 09:28:01;;;;;;;1.00;0.45;;;31.10;1.00;;;;;;5012421;28;20041;-74
2022/07/24 09:30:38;;;;;;;0.77;0.25;;;31.00;1.00;;;;;;5011986;28;20042;-75
2022/07/24 09:33:15;;;;;;;0.50;0.30;;;30.30;1.00;;;;;;5012323;28;20048;-76
2022/07/24 09:35:46;;;;;;;0.28;0.25;;;29.10;1.00;;;;;;5011065;28;20121;-75
2022/07/24 09:38:14;;;;;;;0.85;0.55;;;28.90;1.00;;;;;;5010783;28;20053;-75
2022/07/24 09:40:43;;;;;;;1.08;0.73;;;29.00;1.00;;;;;;5013768;28;20046;-76
2022/07/24 09:43:18;;;;;;;0.08;0.08;;;28.50;1.00;;;;;;5015494;28;20049;-75
2022/07/24 09:45:57;;;;;;;0.22;0.20;;;28.60;1.00;;;;;;5015965;28;20038;-75
2022/07/24 09:48:39;;;;;;;1.45;0.57;;;29.10;1.00;;;;;;5015793;28;20070;-75
2022/07/24 09:51:15;;;;;;;0.15;0.10;;;29.20;1.00;;;;;;5015666;28;20064;-75
2022/07/24 09:53:43;;;;;;;0.03;0.03;;;29.30;1.00;;;;;;5014680;28;20073;-75
2022/07/24 09:56:14;;;;;;;0.10;0.10;;;29.40;1.00;;;;;;5015334;28;20148;-75
2022/07/24 09:58:46;;;;;;;0.43;0.22;;;29.40;1.00;;;;;;5015835;28;20112;-75
2022/07/24 10:01:14;;;;;;;0.38;0.30;;;29.40;1.00;;;;;;5014618;28;20473;-76
2022/07/24 10:03:41;;;;;;;0.38;0.20;;;29.10;1.00;;;;;;5015356;28;20050;-75
2022/07/24 10:06:12;;;;;;;0.98;0.20;;;29.00;1.00;;;;;;5015526;28;20100;-75
2022/07/24 10:08:41;;;;;;;0.50;0.35;;;29.00;1.70;;;;;;5015686;28;20046;-75
2022/07/24 10:11:08;;;;;;;0.10;0.10;;;29.00;1.00;;;;;;5015460;28;20044;-75
2022/07/24 10:13:34;;;;;;;0.50;0.25;;;28.70;1.00;;;;;;5015589;28;20400;-75
2022/07/24 10:16:00;;;;;;;0.05;0.05;;;28.80;2.20;;;;;;5015274;28;20046;-75
2022/07/24 10:18:53;;;;;;;0.00;0.00;;;28.80;3.60;;;;;;5015077;28;20551;-75
2022/07/24 10:21:25;;;;;;;0.73;0.32;;;28.70;1.00;;;;;;4994773;28;20054;-75
2022/07/24 10:24:12;;;;;;;0.95;0.55;;;28.80;2.40;;;;;;4999169;28;20041;-75
2022/07/24 10:26:42;;;;;;;0.20;0.13;;;28.90;4.30;;;;;;5015367;28;20045;-75
2022/07/24 10:29:13;;;;;;;1.35;0.43;;;29.10;3.60;;;;;;5014908;28;20046;-75
2022/07/24 10:31:42;;;;;;;2.65;0.98;;;29.30;1.50;;;;;;5015378;28;20149;-75
2022/07/24 10:34:16;;;;;;;0.28;0.13;;;29.90;1.90;;;;;;5014703;28;20085;-75
2022/07/24 10:37:00;;;;;;;0.40;0.28;;;30.20;1.00;;;;;;5014816;28;20136;-75
2022/07/24 10:39:51;;;;;;;1.27;0.60;;;30.30;1.00;;;;;;5014629;28;20061;-75
2022/07/24 10:42:16;;;;;;;0.55;0.43;;;30.90;1.00;;;;;;5014959;28;20049;-75
2022/07/24 10:44:44;;;;;;;0.43;0.13;;;31.30;1.00;;;;;;5014586;28;20050;-76
2022/07/24 10:47:16;;;;;;;0.40;0.28;;;30.90;1.00;;;;;;5014730;28;20385;-75
2022/07/24 10:49:45;;;;;;;1.20;0.57;;;31.00;1.00;;;;;;5014075;28;20065;-75
2022/07/24 10:52:22;;;;;;;2.38;1.08;;;30.70;1.00;;;;;;5014526;28;20050;-75
2022/07/24 10:54:47;;;;;;;0.17;0.15;;;30.30;1.00;;;;;;5014395;28;20073;-75
2022/07/24 10:57:13;;;;;;;0.40;0.30;;;30.20;1.00;;;;;;5014225;28;20516;-75
2022/07/24 10:59:42;;;;;;;0.45;0.45;;;30.00;1.00;;;;;;5014471;28;20408;-75
2022/07/24 11:02:26;;;;;;;0.40;0.30;;;30.10;1.00;;;;;;5014525;28;20044;-75
2022/07/24 11:05:22;;;;;;;0.85;0.57;;;30.20;1.00;;;;;;5014599;28;20092;-75
2022/07/24 11:08:12;;;;;;;0.45;0.45;;;30.10;1.00;;;;;;5014309;28;20046;-75
2022/07/24 11:10:45;;;;;;;0.73;0.40;;;29.70;1.00;;;;;;5013921;28;20045;-75
2022/07/24 11:13:32;;;;;;;0.00;0.00;;;29.80;1.00;;;;;;5014619;28;20041;-75
2022/07/24 11:16:10;;;;;;;0.10;0.10;;;30.10;1.00;;;;;;5014030;28;20041;-75
2022/07/24 11:18:41;;;;;;;0.55;0.50;;;30.60;1.00;;;;;;5014074;28;20119;-75
2022/07/24 11:21:07;;;;;;;0.95;0.43;;;30.60;1.00;;;;;;5014059;28;20152;-75
2022/07/24 11:23:33;;;;;;;0.00;0.00;;;30.30;1.00;;;;;;5014190;28;20382;-76
2022/07/24 11:26:35;;;;;;;0.00;0.00;;;30.60;1.00;;;;;;5014412;28;20045;-75
2022/07/24 11:29:12;;;;;;;0.08;0.08;;;30.90;1.00;;;;;;5014007;28;20077;-75
2022/07/24 11:31:37;;;;;;;0.45;0.38;;;31.40;1.00;;;;;;5013862;28;20046;-76
2022/07/24 11:34:04;;;;;;;0.15;0.13;;;32.00;1.00;;;;;;5013850;28;20449;-75
2022/07/24 11:36:31;;;;;;;0.30;0.30;;;32.70;1.00;;;;;;5013695;28;20042;-75
2022/07/24 11:38:57;;;;;;;0.15;0.15;;;32.30;1.00;;;;;;5013891;28;20060;-75
2022/07/24 11:41:22;;;;;;;0.38;0.22;;;31.60;1.00;;;;;;5013758;28;20046;-75
2022/07/24 11:43:54;;;;;;;0.17;0.15;;;32.10;1.00;;;;;;5013491;28;20048;-75
2022/07/24 11:46:37;;;;;;;0.80;0.08;;;32.80;1.00;;;;;;5014019;28;20046;-75
2022/07/24 11:49:07;;;;;;;0.30;0.30;;;33.00;1.00;;;;;;5013915;28;20053;-75
2022/07/24 11:51:44;;;;;;;2.22;1.50;;;33.10;1.00;;;;;;5013708;28;20048;-75
2022/07/24 11:54:12;;;;;;;1.48;0.43;;;33.30;1.00;;;;;;5013356;28;20504;-75
2022/07/24 11:56:38;;;;;;;0.00;0.00;;;33.50;1.00;;;;;;5013546;28;20068;-75
2022/07/24 11:59:04;;;;;;;0.08;0.08;;;33.30;1.00;;;;;;5013767;28;20046;-75
2022/07/24 12:01:30;;;;;;;2.50;0.85;;;33.40;1.00;;;;;;5013052;28;20098;-74
2022/07/24 12:03:59;;;;;;;0.85;0.57;;;33.50;1.00;;;;;;5012930;28;20057;-75
2022/07/24 12:06:26;;;;;;;1.23;0.43;;;33.30;1.00;;;;;;5013527;28;20125;-75
2022/07/24 12:08:57;;;;;;;0.47;0.38;;;32.90;1.00;;;;;;5012472;28;20073;-75
2022/07/24 12:11:22;;;;;;;0.70;0.35;;;33.20;1.00;;;;;;5013557;28;20069;-75
2022/07/24 12:13:51;;;;;;;0.60;0.57;;;33.70;1.00;;;;;;5013524;28;20073;-75
2022/07/24 12:16:25;;;;;;;0.95;0.88;;;33.60;1.00;;;;;;5013362;28;20081;-75
2022/07/24 12:18:50;;;;;;;0.40;0.28;;;33.80;1.00;;;;;;5013133;28;20050;-75
2022/07/24 12:21:17;;;;;;;0.20;0.17;;;34.00;1.00;;;;;;5013147;28;20041;-75
2022/07/24 12:23:46;;;;;;;0.00;0.00;;;34.30;1.00;;;;;;5013516;28;20042;-75
2022/07/24 12:26:11;;;;;;;0.45;0.43;;;34.30;1.00;;;;;;5012915;28;20487;-75
2022/07/24 12:28:37;;;;;;;0.65;0.28;;;34.60;1.00;;;;;;5013236;28;20045;-75
2022/07/24 12:31:10;;;;;;;0.20;0.20;;;34.70;1.00;;;;;;5012971;28;20042;-75
2022/07/24 12:33:36;;;;;;;0.13;0.13;;;34.60;1.00;;;;;;5012998;28;20172;-75
2022/07/24 12:36:17;;;;;;;0.70;0.32;;;34.00;1.00;;;;;;5012712;28;20466;-75
2022/07/24 12:38:54;;;;;;;0.03;0.03;;;34.00;1.00;;;;;;5013429;28;20095;-75
2022/07/24 12:41:22;;;;;;;0.20;0.20;;;34.20;1.00;;;;;;5012925;28;20172;-75
2022/07/24 12:43:52;;;;;;;1.38;0.65;;;34.20;1.00;;;;;;5011419;28;20042;-75
2022/07/24 12:46:29;;;;;;;0.63;0.35;;;34.40;1.00;;;;;;5012908;28;20496;-75
2022/07/24 12:49:03;;;;;;;0.55;0.35;;;33.70;1.00;;;;;;5013145;28;20520;-75
2022/07/24 12:51:48;;;;;;;0.10;0.10;;;33.90;1.00;;;;;;5012545;28;20120;-75